sensor_id;sensor_type;location;lat;lon;timestamp;temperature;humidity
14873;DHT22;7528;48.576;19.122;2022-11-18T00:01:27;11.90;71.60
14873;DHT22;7528;48.576;19.122;2022-11-18T00:06:31;11.90;71.70
14873;DHT22;7528;48.576;19.122;2022-11-18T00:11:34;11.90;72.00
14873;DHT22;7528;48.576;19.122;2022-11-18T00:16:55;11.90;71.90
14873;DHT22;7528;48.576;19.122;2022-11-18T00:21:59;11.90;71.70
14873;DHT22;7528;48.576;19.122;2022-11-18T00:27:02;11.90;71.80
14873;DHT22;7528;48.576;19.122;2022-11-18T00:32:05;11.90;71.80
14873;DHT22;7528;48.576;19.122;2022-11-18T00:37:09;11.90;71.70
14873;DHT22;7528;48.576;19.122;2022-11-18T00:42:11;11.90;71.70
14873;DHT22;7528;48.576;19.122;2022-11-18T00:47:31;12.00;71.40
14873;DHT22;7528;48.576;19.122;2022-11-18T00:52:37;11.90;71.50
14873;DHT22;7528;48.576;19.122;2022-11-18T00:57:43;11.90;72.10
14873;DHT22;7528;48.576;19.122;2022-11-18T01:02:45;11.90;72.20
14873;DHT22;7528;48.576;19.122;2022-11-18T01:07:50;12.00;72.00
14873;DHT22;7528;48.576;19.122;2022-11-18T01:12:54;11.90;72.30
14873;DHT22;7528;48.576;19.122;2022-11-18T01:18:21;11.80;72.40
14873;DHT22;7528;48.576;19.122;2022-11-18T01:23:26;11.90;72.40
14873;DHT22;7528;48.576;19.122;2022-11-18T01:28:29;11.90;72.70
14873;DHT22;7528;48.576;19.122;2022-11-18T01:33:33;11.80;72.70
14873;DHT22;7528;48.576;19.122;2022-11-18T01:38:37;11.90;72.40
14873;DHT22;7528;48.576;19.122;2022-11-18T01:43:48;11.90;72.50
14873;DHT22;7528;48.576;19.122;2022-11-18T01:48:55;11.80;72.60
14873;DHT22;7528;48.576;19.122;2022-11-18T01:54:03;11.80;72.90
14873;DHT22;7528;48.576;19.122;2022-11-18T01:59:10;11.90;72.40
14873;DHT22;7528;48.576;19.122;2022-11-18T02:04:14;12.00;72.00
14873;DHT22;7528;48.576;19.122;2022-11-18T02:09:18;11.90;72.20
14873;DHT22;7528;48.576;19.122;2022-11-18T02:14:23;11.80;72.80
14873;DHT22;7528;48.576;19.122;2022-11-18T02:19:57;11.90;72.70
14873;DHT22;7528;48.576;19.122;2022-11-18T02:25:07;11.90;72.60
14873;DHT22;7528;48.576;19.122;2022-11-18T02:30:17;11.90;72.70
14873;DHT22;7528;48.576;19.122;2022-11-18T02:35:25;11.80;72.70
14873;DHT22;7528;48.576;19.122;2022-11-18T02:40:32;11.80;72.60
14873;DHT22;7528;48.576;19.122;2022-11-18T02:45:41;11.90;72.80
14873;DHT22;7528;48.576;19.122;2022-11-18T02:50:45;11.80;72.70
14873;DHT22;7528;48.576;19.122;2022-11-18T02:55:48;11.90;72.90
14873;DHT22;7528;48.576;19.122;2022-11-18T03:00:54;11.80;73.80
14873;DHT22;7528;48.576;19.122;2022-11-18T03:06:03;11.80;73.20
14873;DHT22;7528;48.576;19.122;2022-11-18T03:11:13;11.90;73.10
14873;DHT22;7528;48.576;19.122;2022-11-18T03:16:24;11.80;73.30
14873;DHT22;7528;48.576;19.122;2022-11-18T03:21:32;11.80;73.20
14873;DHT22;7528;48.576;19.122;2022-11-18T03:26:39;11.80;73.10
14873;DHT22;7528;48.576;19.122;2022-11-18T03:31:47;11.80;73.70
14873;DHT22;7528;48.576;19.122;2022-11-18T03:36:53;11.80;73.50
14873;DHT22;7528;48.576;19.122;2022-11-18T03:42:03;11.80;73.20
14873;DHT22;7528;48.576;19.122;2022-11-18T03:47:13;11.80;73.40
14873;DHT22;7528;48.576;19.122;2022-11-18T03:52:22;11.80;74.20
14873;DHT22;7528;48.576;19.122;2022-11-18T03:57:32;11.70;74.00
14873;DHT22;7528;48.576;19.122;2022-11-18T04:02:38;11.70;73.70
14873;DHT22;7528;48.576;19.122;2022-11-18T04:07:47;11.70;73.60
14873;DHT22;7528;48.576;19.122;2022-11-18T04:12:58;11.80;73.60
14873;DHT22;7528;48.576;19.122;2022-11-18T04:18:04;11.80;73.80
14873;DHT22;7528;48.576;19.122;2022-11-18T04:23:08;11.70;73.70
14873;DHT22;7528;48.576;19.122;2022-11-18T04:28:10;11.70;74.00
14873;DHT22;7528;48.576;19.122;2022-11-18T04:33:14;11.80;73.80
14873;DHT22;7528;48.576;19.122;2022-11-18T04:38:17;11.70;73.70
14873;DHT22;7528;48.576;19.122;2022-11-18T04:43:20;11.70;74.00
14873;DHT22;7528;48.576;19.122;2022-11-18T04:48:24;11.70;74.00
14873;DHT22;7528;48.576;19.122;2022-11-18T04:53:27;11.80;73.80
14873;DHT22;7528;48.576;19.122;2022-11-18T04:58:29;11.70;73.90
14873;DHT22;7528;48.576;19.122;2022-11-18T05:03:33;11.70;74.30
14873;DHT22;7528;48.576;19.122;2022-11-18T05:08:36;11.80;74.20
14873;DHT22;7528;48.576;19.122;2022-11-18T05:13:38;11.70;74.10
14873;DHT22;7528;48.576;19.122;2022-11-18T05:18:43;11.70;73.80
14873;DHT22;7528;48.576;19.122;2022-11-18T05:23:45;11.70;73.90
14873;DHT22;7528;48.576;19.122;2022-11-18T05:28:48;11.70;73.70
14873;DHT22;7528;48.576;19.122;2022-11-18T05:33:52;11.70;74.00
14873;DHT22;7528;48.576;19.122;2022-11-18T05:38:58;11.60;74.30
14873;DHT22;7528;48.576;19.122;2022-11-18T05:44:01;11.70;74.20
14873;DHT22;7528;48.576;19.122;2022-11-18T05:49:05;11.80;74.20
14873;DHT22;7528;48.576;19.122;2022-11-18T05:54:09;11.80;73.70
14873;DHT22;7528;48.576;19.122;2022-11-18T05:59:13;11.80;73.70
14873;DHT22;7528;48.576;19.122;2022-11-18T06:04:21;11.80;74.10
14873;DHT22;7528;48.576;19.122;2022-11-18T06:09:29;11.70;74.60
14873;DHT22;7528;48.576;19.122;2022-11-18T06:14:37;11.70;74.90
14873;DHT22;7528;48.576;19.122;2022-11-18T06:19:42;11.70;74.50
14873;DHT22;7528;48.576;19.122;2022-11-18T06:24:45;11.80;74.20
14873;DHT22;7528;48.576;19.122;2022-11-18T06:29:48;11.90;73.90
14873;DHT22;7528;48.576;19.122;2022-11-18T06:34:52;11.80;73.60
14873;DHT22;7528;48.576;19.122;2022-11-18T06:39:54;11.90;73.90
14873;DHT22;7528;48.576;19.122;2022-11-18T06:44:57;11.90;73.90
14873;DHT22;7528;48.576;19.122;2022-11-18T06:50:01;11.90;74.90
14873;DHT22;7528;48.576;19.122;2022-11-18T06:55:04;11.90;74.20
14873;DHT22;7528;48.576;19.122;2022-11-18T07:00:09;11.90;74.00
14873;DHT22;7528;48.576;19.122;2022-11-18T07:05:14;11.90;73.40
14873;DHT22;7528;48.576;19.122;2022-11-18T07:10:16;11.90;73.90
14873;DHT22;7528;48.576;19.122;2022-11-18T07:15:19;11.80;74.20
14873;DHT22;7528;48.576;19.122;2022-11-18T07:20:23;11.90;74.90
14873;DHT22;7528;48.576;19.122;2022-11-18T07:25:26;11.80;74.60
14873;DHT22;7528;48.576;19.122;2022-11-18T07:30:28;11.90;74.30
14873;DHT22;7528;48.576;19.122;2022-11-18T07:35:32;11.90;74.30
14873;DHT22;7528;48.576;19.122;2022-11-18T07:40:35;12.00;73.80
14873;DHT22;7528;48.576;19.122;2022-11-18T07:45:37;12.00;73.50
14873;DHT22;7528;48.576;19.122;2022-11-18T07:50:41;12.10;72.90
14873;DHT22;7528;48.576;19.122;2022-11-18T07:55:44;12.10;72.90
14873;DHT22;7528;48.576;19.122;2022-11-18T08:00:47;12.00;73.00
14873;DHT22;7528;48.576;19.122;2022-11-18T08:05:51;12.00;73.00
14873;DHT22;7528;48.576;19.122;2022-11-18T08:10:55;11.90;73.30
14873;DHT22;7528;48.576;19.122;2022-11-18T08:15:58;12.00;73.80
14873;DHT22;7528;48.576;19.122;2022-11-18T08:21:03;12.00;74.00
14873;DHT22;7528;48.576;19.122;2022-11-18T08:26:08;12.00;73.70
14873;DHT22;7528;48.576;19.122;2022-11-18T08:31:12;12.00;73.40
14873;DHT22;7528;48.576;19.122;2022-11-18T08:36:19;12.10;73.20
14873;DHT22;7528;48.576;19.122;2022-11-18T08:41:28;12.10;73.20
14873;DHT22;7528;48.576;19.122;2022-11-18T08:46:32;12.10;73.30
14873;DHT22;7528;48.576;19.122;2022-11-18T08:51:36;12.10;73.30
14873;DHT22;7528;48.576;19.122;2022-11-18T08:56:39;12.20;73.80
14873;DHT22;7528;48.576;19.122;2022-11-18T09:01:41;12.30;73.30
14873;DHT22;7528;48.576;19.122;2022-11-18T09:06:46;12.30;73.20
14873;DHT22;7528;48.576;19.122;2022-11-18T09:11:48;12.40;73.60
14873;DHT22;7528;48.576;19.122;2022-11-18T09:16:51;12.40;73.50
14873;DHT22;7528;48.576;19.122;2022-11-18T09:21:55;12.50;73.70
14873;DHT22;7528;48.576;19.122;2022-11-18T09:27:01;12.70;73.20
14873;DHT22;7528;48.576;19.122;2022-11-18T09:32:04;13.00;72.60
14873;DHT22;7528;48.576;19.122;2022-11-18T09:37:09;13.50;70.90
14873;DHT22;7528;48.576;19.122;2022-11-18T09:42:21;14.10;70.90
14873;DHT22;7528;48.576;19.122;2022-11-18T09:47:31;14.70;67.50
14873;DHT22;7528;48.576;19.122;2022-11-18T09:52:39;14.80;65.70
14873;DHT22;7528;48.576;19.122;2022-11-18T09:57:45;14.60;64.20
14873;DHT22;7528;48.576;19.122;2022-11-18T10:02:54;14.60;66.10
14873;DHT22;7528;48.576;19.122;2022-11-18T10:08:04;14.50;66.60
14873;DHT22;7528;48.576;19.122;2022-11-18T10:13:17;14.40;66.40
14873;DHT22;7528;48.576;19.122;2022-11-18T10:18:27;14.30;64.90
14873;DHT22;7528;48.576;19.122;2022-11-18T10:23:38;14.20;64.00
14873;DHT22;7528;48.576;19.122;2022-11-18T10:28:45;14.20;65.40
14873;DHT22;7528;48.576;19.122;2022-11-18T10:33:57;14.30;65.10
14873;DHT22;7528;48.576;19.122;2022-11-18T10:39:11;14.10;65.10
14873;DHT22;7528;48.576;19.122;2022-11-18T10:44:33;14.20;65.80
14873;DHT22;7528;48.576;19.122;2022-11-18T10:49:37;14.10;66.70
14873;DHT22;7528;48.576;19.122;2022-11-18T10:54:42;14.10;66.20
14873;DHT22;7528;48.576;19.122;2022-11-18T10:59:47;14.10;65.30
14873;DHT22;7528;48.576;19.122;2022-11-18T11:04:53;14.10;64.80
14873;DHT22;7528;48.576;19.122;2022-11-18T11:10:06;14.10;65.40
14873;DHT22;7528;48.576;19.122;2022-11-18T11:15:20;14.10;64.60
14873;DHT22;7528;48.576;19.122;2022-11-18T11:20:24;14.00;64.90
14873;DHT22;7528;48.576;19.122;2022-11-18T11:25:35;14.00;64.30
14873;DHT22;7528;48.576;19.122;2022-11-18T11:30:46;14.10;63.40
14873;DHT22;7528;48.576;19.122;2022-11-18T11:36:03;13.90;64.10
14873;DHT22;7528;48.576;19.122;2022-11-18T11:41:17;13.90;64.80
14873;DHT22;7528;48.576;19.122;2022-11-18T11:46:27;13.90;64.90
14873;DHT22;7528;48.576;19.122;2022-11-18T11:51:38;13.80;65.70
14873;DHT22;7528;48.576;19.122;2022-11-18T11:56:48;13.70;66.70
14873;DHT22;7528;48.576;19.122;2022-11-18T12:01:58;13.70;66.80
14873;DHT22;7528;48.576;19.122;2022-11-18T12:07:01;13.70;66.30
14873;DHT22;7528;48.576;19.122;2022-11-18T12:12:09;13.70;65.50
14873;DHT22;7528;48.576;19.122;2022-11-18T12:17:39;13.60;65.40
14873;DHT22;7528;48.576;19.122;2022-11-18T12:23:10;13.60;65.60
14873;DHT22;7528;48.576;19.122;2022-11-18T12:28:22;13.40;66.00
14873;DHT22;7528;48.576;19.122;2022-11-18T12:33:25;13.30;67.00
14873;DHT22;7528;48.576;19.122;2022-11-18T12:38:30;13.20;67.90
14873;DHT22;7528;48.576;19.122;2022-11-18T12:44:05;13.20;68.50
14873;DHT22;7528;48.576;19.122;2022-11-18T12:54:46;13.20;68.30
14873;DHT22;7528;48.576;19.122;2022-11-18T12:59:51;13.20;68.80
14873;DHT22;7528;48.576;19.122;2022-11-18T13:05:06;13.30;68.00
14873;DHT22;7528;48.576;19.122;2022-11-18T13:10:19;13.30;67.70
14873;DHT22;7528;48.576;19.122;2022-11-18T13:15:25;13.30;68.10
14873;DHT22;7528;48.576;19.122;2022-11-18T13:20:54;13.30;67.00
14873;DHT22;7528;48.576;19.122;2022-11-18T13:26:03;13.30;67.20
14873;DHT22;7528;48.576;19.122;2022-11-18T13:31:16;13.30;67.10
14873;DHT22;7528;48.576;19.122;2022-11-18T13:36:22;13.30;66.70
14873;DHT22;7528;48.576;19.122;2022-11-18T13:41:28;13.00;68.00
14873;DHT22;7528;48.576;19.122;2022-11-18T13:46:35;12.90;69.30
14873;DHT22;7528;48.576;19.122;2022-11-18T13:51:39;13.10;68.20
14873;DHT22;7528;48.576;19.122;2022-11-18T13:56:42;13.00;69.40
14873;DHT22;7528;48.576;19.122;2022-11-18T14:01:54;12.90;68.20
14873;DHT22;7528;48.576;19.122;2022-11-18T14:07:14;12.80;69.50
14873;DHT22;7528;48.576;19.122;2022-11-18T14:12:22;12.90;69.70
14873;DHT22;7528;48.576;19.122;2022-11-18T14:17:28;12.80;68.40
14873;DHT22;7528;48.576;19.122;2022-11-18T14:22:30;12.70;68.80
14873;DHT22;7528;48.576;19.122;2022-11-18T14:27:36;12.70;69.40
14873;DHT22;7528;48.576;19.122;2022-11-18T14:32:40;12.70;67.40
14873;DHT22;7528;48.576;19.122;2022-11-18T14:37:43;12.70;67.50
14873;DHT22;7528;48.576;19.122;2022-11-18T14:42:51;12.70;66.70
14873;DHT22;7528;48.576;19.122;2022-11-18T14:47:55;12.80;66.50
14873;DHT22;7528;48.576;19.122;2022-11-18T14:52:58;12.90;66.20
14873;DHT22;7528;48.576;19.122;2022-11-18T14:58:00;12.80;65.00
14873;DHT22;7528;48.576;19.122;2022-11-18T15:03:05;12.70;65.20
14873;DHT22;7528;48.576;19.122;2022-11-18T15:08:08;12.70;65.00
14873;DHT22;7528;48.576;19.122;2022-11-18T15:13:10;12.50;65.10
14873;DHT22;7528;48.576;19.122;2022-11-18T15:18:14;12.60;67.50
14873;DHT22;7528;48.576;19.122;2022-11-18T15:23:17;12.70;65.60
14873;DHT22;7528;48.576;19.122;2022-11-18T15:28:20;12.70;67.40
14873;DHT22;7528;48.576;19.122;2022-11-18T15:33:24;12.70;68.00
14873;DHT22;7528;48.576;19.122;2022-11-18T15:38:28;12.70;68.00
14873;DHT22;7528;48.576;19.122;2022-11-18T15:43:30;12.70;67.50
14873;DHT22;7528;48.576;19.122;2022-11-18T15:48:36;12.70;67.90
14873;DHT22;7528;48.576;19.122;2022-11-18T15:53:39;12.70;67.90
14873;DHT22;7528;48.576;19.122;2022-11-18T15:58:42;12.60;68.40
14873;DHT22;7528;48.576;19.122;2022-11-18T16:03:47;12.50;68.40
14873;DHT22;7528;48.576;19.122;2022-11-18T16:08:49;12.40;69.00
14873;DHT22;7528;48.576;19.122;2022-11-18T16:13:53;12.40;69.00
14873;DHT22;7528;48.576;19.122;2022-11-18T16:18:57;12.20;69.50
14873;DHT22;7528;48.576;19.122;2022-11-18T16:24:02;12.30;69.70
14873;DHT22;7528;48.576;19.122;2022-11-18T16:29:10;12.30;69.30
14873;DHT22;7528;48.576;19.122;2022-11-18T16:34:16;12.40;69.00
14873;DHT22;7528;48.576;19.122;2022-11-18T16:39:20;12.30;69.10
14873;DHT22;7528;48.576;19.122;2022-11-18T16:44:25;12.40;69.90
14873;DHT22;7528;48.576;19.122;2022-11-18T16:49:30;12.40;69.10
14873;DHT22;7528;48.576;19.122;2022-11-18T16:54:32;12.20;69.10
14873;DHT22;7528;48.576;19.122;2022-11-18T16:59:35;12.20;66.40
14873;DHT22;7528;48.576;19.122;2022-11-18T17:04:39;12.20;65.50
14873;DHT22;7528;48.576;19.122;2022-11-18T17:09:42;12.10;65.80
14873;DHT22;7528;48.576;19.122;2022-11-18T17:14:45;12.10;64.50
14873;DHT22;7528;48.576;19.122;2022-11-18T17:19:49;12.00;64.80
14873;DHT22;7528;48.576;19.122;2022-11-18T17:24:52;11.90;64.00
14873;DHT22;7528;48.576;19.122;2022-11-18T17:29:55;11.80;63.90
14873;DHT22;7528;48.576;19.122;2022-11-18T17:34:59;11.90;62.60
14873;DHT22;7528;48.576;19.122;2022-11-18T17:40:02;11.70;63.00
14873;DHT22;7528;48.576;19.122;2022-11-18T17:45:05;11.70;62.30
14873;DHT22;7528;48.576;19.122;2022-11-18T17:50:10;11.60;62.60
14873;DHT22;7528;48.576;19.122;2022-11-18T17:55:13;11.60;62.20
14873;DHT22;7528;48.576;19.122;2022-11-18T18:00:17;11.50;62.80
14873;DHT22;7528;48.576;19.122;2022-11-18T18:05:22;11.70;63.00
14873;DHT22;7528;48.576;19.122;2022-11-18T18:10:25;11.60;62.60
14873;DHT22;7528;48.576;19.122;2022-11-18T18:15:28;11.60;62.20
14873;DHT22;7528;48.576;19.122;2022-11-18T18:20:33;11.40;60.80
14873;DHT22;7528;48.576;19.122;2022-11-18T18:25:36;11.20;61.90
14873;DHT22;7528;48.576;19.122;2022-11-18T18:30:38;11.10;61.80
14873;DHT22;7528;48.576;19.122;2022-11-18T18:35:43;11.00;62.20
14873;DHT22;7528;48.576;19.122;2022-11-18T18:40:46;10.90;62.00
14873;DHT22;7528;48.576;19.122;2022-11-18T18:45:48;10.80;62.20
14873;DHT22;7528;48.576;19.122;2022-11-18T18:51:10;10.80;62.10
14873;DHT22;7528;48.576;19.122;2022-11-18T18:56:13;10.70;61.40
14873;DHT22;7528;48.576;19.122;2022-11-18T19:01:18;10.60;62.00
14873;DHT22;7528;48.576;19.122;2022-11-18T19:06:24;10.60;61.20
14873;DHT22;7528;48.576;19.122;2022-11-18T19:11:28;10.50;61.70
14873;DHT22;7528;48.576;19.122;2022-11-18T19:16:48;10.50;61.30
14873;DHT22;7528;48.576;19.122;2022-11-18T19:21:52;10.40;61.60
14873;DHT22;7528;48.576;19.122;2022-11-18T19:26:55;10.30;61.10
14873;DHT22;7528;48.576;19.122;2022-11-18T19:31:57;10.30;61.30
14873;DHT22;7528;48.576;19.122;2022-11-18T19:37:01;10.30;60.50
14873;DHT22;7528;48.576;19.122;2022-11-18T19:42:04;10.30;60.50
14873;DHT22;7528;48.576;19.122;2022-11-18T19:47:07;10.20;60.00
14873;DHT22;7528;48.576;19.122;2022-11-18T19:52:12;10.10;59.40
14873;DHT22;7528;48.576;19.122;2022-11-18T19:57:14;10.00;59.20
14873;DHT22;7528;48.576;19.122;2022-11-18T20:02:17;10.10;59.80
14873;DHT22;7528;48.576;19.122;2022-11-18T20:07:21;10.10;59.50
14873;DHT22;7528;48.576;19.122;2022-11-18T20:12:24;10.20;58.90
14873;DHT22;7528;48.576;19.122;2022-11-18T20:17:27;10.10;58.30
14873;DHT22;7528;48.576;19.122;2022-11-18T20:22:31;9.90;58.20
14873;DHT22;7528;48.576;19.122;2022-11-18T20:27:34;9.80;58.40
14873;DHT22;7528;48.576;19.122;2022-11-18T20:32:36;9.70;58.80
14873;DHT22;7528;48.576;19.122;2022-11-18T20:37:41;9.60;59.00
14873;DHT22;7528;48.576;19.122;2022-11-18T20:42:44;9.60;59.70
14873;DHT22;7528;48.576;19.122;2022-11-18T20:48:04;9.50;58.80
14873;DHT22;7528;48.576;19.122;2022-11-18T20:53:09;9.50;59.10
14873;DHT22;7528;48.576;19.122;2022-11-18T20:58:11;9.50;59.00
14873;DHT22;7528;48.576;19.122;2022-11-18T21:03:15;9.50;57.90
14873;DHT22;7528;48.576;19.122;2022-11-18T21:08:21;9.50;58.10
14873;DHT22;7528;48.576;19.122;2022-11-18T21:13:25;9.30;58.00
14873;DHT22;7528;48.576;19.122;2022-11-18T21:19:00;9.20;58.00
14873;DHT22;7528;48.576;19.122;2022-11-18T21:24:07;9.00;57.60
14873;DHT22;7528;48.576;19.122;2022-11-18T21:29:12;9.00;57.90
14873;DHT22;7528;48.576;19.122;2022-11-18T21:34:16;9.10;57.80
14873;DHT22;7528;48.576;19.122;2022-11-18T21:39:20;9.00;57.90
14873;DHT22;7528;48.576;19.122;2022-11-18T21:44:24;8.90;58.00
14873;DHT22;7528;48.576;19.122;2022-11-18T21:49:27;9.00;58.00
14873;DHT22;7528;48.576;19.122;2022-11-18T21:54:32;9.00;57.00
14873;DHT22;7528;48.576;19.122;2022-11-18T21:59:36;8.80;57.30
14873;DHT22;7528;48.576;19.122;2022-11-18T22:04:39;8.80;58.20
14873;DHT22;7528;48.576;19.122;2022-11-18T22:09:55;8.70;58.20
14873;DHT22;7528;48.576;19.122;2022-11-18T22:14:57;8.80;57.40
14873;DHT22;7528;48.576;19.122;2022-11-18T22:20:00;8.70;57.20
14873;DHT22;7528;48.576;19.122;2022-11-18T22:25:05;8.70;57.60
14873;DHT22;7528;48.576;19.122;2022-11-18T22:30:08;8.70;57.90
14873;DHT22;7528;48.576;19.122;2022-11-18T22:35:11;8.80;57.90
14873;DHT22;7528;48.576;19.122;2022-11-18T22:40:16;8.60;57.30
14873;DHT22;7528;48.576;19.122;2022-11-18T22:45:19;8.40;57.40
14873;DHT22;7528;48.576;19.122;2022-11-18T22:50:21;8.30;57.10
14873;DHT22;7528;48.576;19.122;2022-11-18T22:55:26;8.10;57.10
14873;DHT22;7528;48.576;19.122;2022-11-18T23:00:29;8.10;57.40
14873;DHT22;7528;48.576;19.122;2022-11-18T23:05:32;8.20;57.80
14873;DHT22;7528;48.576;19.122;2022-11-18T23:10:39;8.10;57.50
14873;DHT22;7528;48.576;19.122;2022-11-18T23:15:41;8.20;56.70
14873;DHT22;7528;48.576;19.122;2022-11-18T23:20:44;7.90;57.00
14873;DHT22;7528;48.576;19.122;2022-11-18T23:25:48;7.80;57.80
14873;DHT22;7528;48.576;19.122;2022-11-18T23:30:51;7.70;58.10
14873;DHT22;7528;48.576;19.122;2022-11-18T23:35:54;7.90;57.60
14873;DHT22;7528;48.576;19.122;2022-11-18T23:40:59;7.70;57.70
14873;DHT22;7528;48.576;19.122;2022-11-18T23:46:02;7.80;58.30
14873;DHT22;7528;48.576;19.122;2022-11-18T23:51:07;7.80;56.60
14873;DHT22;7528;48.576;19.122;2022-11-18T23:56:13;7.50;57.30
